Current Weather

York

York, Pennsylvania (KTHV)

Report from: Wednesday, April 24, 2024 11:53 PM EDT
Current time: Thursday, April 25, 2024 12:54 AM EDT

Nearby weather – Weather history – Daily summaries
Weather forecast

Temperature10.6°C (51.1°F)
Dew point6.7°C (44.1°F)
Winds 5 kts (2.6 m/s, 5.8 mph) North (350°)
Visibility10 mi. (16.1 km)
Clouds Sky clear
Altimeter30.12 in.Hg (1020 mB)
Relative humidity77 %
Density altitude-619 ft. (-189 m)
Sea-level pressure102.0 kPa (1020 mB, 30.13 in.Hg)
Remarks Fully automated report
Automated weather observing station with precipitation discriminator
Flight conditions Visual Meteorological Conditions
Raw dataKTHV 250353Z AUTO 35005KT 10SM CLR 11/07 A3012 RMK AO2 SLP202 T01060067
An error has occurred. This application may no longer respond until reloaded. Reload 🗙